sensor_id;sensor_type;location;lat;lon;timestamp;P1;durP1;ratioP1;P2;durP2;ratioP2
44636;SDS011;30343;0.000;0.000;2022-08-21T00:02:15;8.55;;;2.70;;
44636;SDS011;30343;0.000;0.000;2022-08-21T00:05:00;5.38;;;3.00;;
44636;SDS011;30343;0.000;0.000;2022-08-21T00:07:45;7.28;;;3.03;;
44636;SDS011;30343;0.000;0.000;2022-08-21T00:13:13;7.75;;;3.72;;
44636;SDS011;30343;0.000;0.000;2022-08-21T00:18:42;6.72;;;2.65;;
44636;SDS011;30343;0.000;0.000;2022-08-21T00:21:26;9.10;;;3.17;;
44636;SDS011;30343;0.000;0.000;2022-08-21T00:24:11;7.53;;;2.97;;
44636;SDS011;30343;0.000;0.000;2022-08-21T00:26:55;5.93;;;2.72;;
44636;SDS011;30343;0.000;0.000;2022-08-21T00:29:40;5.93;;;3.00;;
44636;SDS011;30343;0.000;0.000;2022-08-21T00:32:24;6.45;;;3.05;;
44636;SDS011;30343;0.000;0.000;2022-08-21T00:35:12;9.60;;;3.22;;
44636;SDS011;30343;0.000;0.000;2022-08-21T00:38:00;7.57;;;3.17;;
44636;SDS011;30343;0.000;0.000;2022-08-21T00:40:49;6.50;;;3.20;;
44636;SDS011;30343;0.000;0.000;2022-08-21T00:43:36;5.45;;;3.00;;
44636;SDS011;30343;0.000;0.000;2022-08-21T00:46:21;5.18;;;2.97;;
44636;SDS011;30343;0.000;0.000;2022-08-21T00:49:06;5.30;;;3.10;;
44636;SDS011;30343;0.000;0.000;2022-08-21T00:51:53;6.70;;;3.28;;
44636;SDS011;30343;0.000;0.000;2022-08-21T00:54:41;7.28;;;2.67;;
44636;SDS011;30343;0.000;0.000;2022-08-21T00:57:31;4.75;;;2.88;;
44636;SDS011;30343;0.000;0.000;2022-08-21T01:00:21;6.32;;;3.15;;
44636;SDS011;30343;0.000;0.000;2022-08-21T01:03:13;5.97;;;3.00;;
44636;SDS011;30343;0.000;0.000;2022-08-21T01:06:00;5.70;;;3.53;;
44636;SDS011;30343;0.000;0.000;2022-08-21T01:08:47;6.53;;;3.30;;
44636;SDS011;30343;0.000;0.000;2022-08-21T01:11:31;6.80;;;3.13;;
44636;SDS011;30343;0.000;0.000;2022-08-21T01:14:16;9.75;;;3.33;;
44636;SDS011;30343;0.000;0.000;2022-08-21T01:17:03;6.55;;;3.45;;
44636;SDS011;30343;0.000;0.000;2022-08-21T01:19:47;5.45;;;2.78;;
44636;SDS011;30343;0.000;0.000;2022-08-21T01:22:31;8.10;;;3.38;;
44636;SDS011;30343;0.000;0.000;2022-08-21T01:25:16;6.25;;;2.90;;
44636;SDS011;30343;0.000;0.000;2022-08-21T01:28:13;5.45;;;2.63;;
44636;SDS011;30343;0.000;0.000;2022-08-21T01:30:58;7.15;;;3.05;;
44636;SDS011;30343;0.000;0.000;2022-08-21T01:33:43;7.45;;;3.20;;
44636;SDS011;30343;0.000;0.000;2022-08-21T01:36:27;7.00;;;2.90;;
44636;SDS011;30343;0.000;0.000;2022-08-21T01:39:12;6.15;;;2.72;;
44636;SDS011;30343;0.000;0.000;2022-08-21T01:44:40;7.53;;;3.00;;
44636;SDS011;30343;0.000;0.000;2022-08-21T01:47:24;8.93;;;3.08;;
44636;SDS011;30343;0.000;0.000;2022-08-21T01:50:10;4.85;;;2.60;;
44636;SDS011;30343;0.000;0.000;2022-08-21T01:52:56;8.13;;;3.20;;
44636;SDS011;30343;0.000;0.000;2022-08-21T01:55:41;9.35;;;3.30;;
44636;SDS011;30343;0.000;0.000;2022-08-21T01:58:25;9.63;;;2.97;;
44636;SDS011;30343;0.000;0.000;2022-08-21T02:01:09;7.35;;;2.85;;
44636;SDS011;30343;0.000;0.000;2022-08-21T02:03:54;5.38;;;2.60;;
44636;SDS011;30343;0.000;0.000;2022-08-21T02:06:38;5.97;;;3.72;;
44636;SDS011;30343;0.000;0.000;2022-08-21T02:09:23;8.20;;;3.22;;
44636;SDS011;30343;0.000;0.000;2022-08-21T02:12:06;5.80;;;2.85;;
44636;SDS011;30343;0.000;0.000;2022-08-21T02:14:51;6.60;;;3.22;;
44636;SDS011;30343;0.000;0.000;2022-08-21T02:17:39;8.02;;;3.05;;
44636;SDS011;30343;0.000;0.000;2022-08-21T02:20:31;7.38;;;3.22;;
44636;SDS011;30343;0.000;0.000;2022-08-21T02:23:17;6.45;;;2.78;;
44636;SDS011;30343;0.000;0.000;2022-08-21T02:26:02;3.45;;;2.40;;
44636;SDS011;30343;0.000;0.000;2022-08-21T02:28:48;6.03;;;2.78;;
44636;SDS011;30343;0.000;0.000;2022-08-21T02:31:32;7.13;;;2.95;;
44636;SDS011;30343;0.000;0.000;2022-08-21T02:37:00;6.03;;;2.97;;
44636;SDS011;30343;0.000;0.000;2022-08-21T02:39:44;7.35;;;3.40;;
44636;SDS011;30343;0.000;0.000;2022-08-21T02:42:28;8.13;;;3.05;;
44636;SDS011;30343;0.000;0.000;2022-08-21T02:45:12;7.80;;;3.05;;
44636;SDS011;30343;0.000;0.000;2022-08-21T02:47:58;7.95;;;3.15;;
44636;SDS011;30343;0.000;0.000;2022-08-21T02:50:45;6.53;;;2.95;;
44636;SDS011;30343;0.000;0.000;2022-08-21T02:53:36;7.82;;;3.35;;
44636;SDS011;30343;0.000;0.000;2022-08-21T02:56:20;8.48;;;2.80;;
44636;SDS011;30343;0.000;0.000;2022-08-21T02:59:08;9.13;;;3.55;;
44636;SDS011;30343;0.000;0.000;2022-08-21T03:01:51;9.82;;;2.75;;
44636;SDS011;30343;0.000;0.000;2022-08-21T03:04:35;6.78;;;2.97;;
44636;SDS011;30343;0.000;0.000;2022-08-21T03:07:19;7.68;;;2.88;;
44636;SDS011;30343;0.000;0.000;2022-08-21T03:10:04;8.45;;;2.95;;
44636;SDS011;30343;0.000;0.000;2022-08-21T03:12:48;7.80;;;2.90;;
44636;SDS011;30343;0.000;0.000;2022-08-21T03:18:17;4.15;;;2.08;;
44636;SDS011;30343;0.000;0.000;2022-08-21T03:21:01;8.63;;;2.83;;
44636;SDS011;30343;0.000;0.000;2022-08-21T03:23:46;5.93;;;2.72;;
44636;SDS011;30343;0.000;0.000;2022-08-21T03:26:30;5.38;;;2.83;;
44636;SDS011;30343;0.000;0.000;2022-08-21T03:32:01;10.68;;;2.80;;
44636;SDS011;30343;0.000;0.000;2022-08-21T03:34:45;8.95;;;3.35;;
44636;SDS011;30343;0.000;0.000;2022-08-21T03:37:29;5.47;;;2.63;;
44636;SDS011;30343;0.000;0.000;2022-08-21T03:40:14;7.45;;;2.92;;
44636;SDS011;30343;0.000;0.000;2022-08-21T03:42:59;5.80;;;2.78;;
44636;SDS011;30343;0.000;0.000;2022-08-21T03:45:43;8.13;;;3.65;;
44636;SDS011;30343;0.000;0.000;2022-08-21T03:48:27;6.75;;;2.65;;
44636;SDS011;30343;0.000;0.000;2022-08-21T03:51:12;7.05;;;3.03;;
44636;SDS011;30343;0.000;0.000;2022-08-21T03:53:56;8.75;;;3.08;;
44636;SDS011;30343;0.000;0.000;2022-08-21T03:56:40;5.75;;;2.88;;
44636;SDS011;30343;0.000;0.000;2022-08-21T03:59:24;8.07;;;3.25;;
44636;SDS011;30343;0.000;0.000;2022-08-21T04:02:09;6.72;;;2.88;;
44636;SDS011;30343;0.000;0.000;2022-08-21T04:04:54;7.30;;;2.80;;
44636;SDS011;30343;0.000;0.000;2022-08-21T04:07:38;6.68;;;2.95;;
44636;SDS011;30343;0.000;0.000;2022-08-21T04:10:25;6.78;;;2.72;;
44636;SDS011;30343;0.000;0.000;2022-08-21T04:13:11;7.75;;;3.13;;
44636;SDS011;30343;0.000;0.000;2022-08-21T04:15:56;6.75;;;2.85;;
44636;SDS011;30343;0.000;0.000;2022-08-21T04:18:42;6.43;;;2.78;;
44636;SDS011;30343;0.000;0.000;2022-08-21T04:21:26;7.93;;;3.25;;
44636;SDS011;30343;0.000;0.000;2022-08-21T04:24:10;7.35;;;2.75;;
44636;SDS011;30343;0.000;0.000;2022-08-21T04:26:54;5.22;;;2.50;;
44636;SDS011;30343;0.000;0.000;2022-08-21T04:29:38;6.03;;;2.45;;
44636;SDS011;30343;0.000;0.000;2022-08-21T04:32:23;7.47;;;3.00;;
44636;SDS011;30343;0.000;0.000;2022-08-21T04:35:08;7.10;;;2.90;;
44636;SDS011;30343;0.000;0.000;2022-08-21T04:37:54;6.50;;;3.15;;
44636;SDS011;30343;0.000;0.000;2022-08-21T04:40:42;6.60;;;3.00;;
44636;SDS011;30343;0.000;0.000;2022-08-21T04:45:52;7.22;;;3.33;;
44636;SDS011;30343;0.000;0.000;2022-08-21T04:48:36;8.15;;;3.33;;
44636;SDS011;30343;0.000;0.000;2022-08-21T04:51:25;8.75;;;3.33;;
44636;SDS011;30343;0.000;0.000;2022-08-21T04:54:17;7.90;;;3.63;;
44636;SDS011;30343;0.000;0.000;2022-08-21T04:57:04;8.38;;;3.65;;
44636;SDS011;30343;0.000;0.000;2022-08-21T04:59:53;8.65;;;4.00;;
44636;SDS011;30343;0.000;0.000;2022-08-21T05:02:37;5.55;;;2.95;;
44636;SDS011;30343;0.000;0.000;2022-08-21T05:05:22;9.15;;;3.80;;
44636;SDS011;30343;0.000;0.000;2022-08-21T05:08:07;7.93;;;3.53;;
44636;SDS011;30343;0.000;0.000;2022-08-21T05:10:57;6.60;;;3.00;;
44636;SDS011;30343;0.000;0.000;2022-08-21T05:16:26;7.57;;;3.38;;
44636;SDS011;30343;0.000;0.000;2022-08-21T05:19:10;7.93;;;2.90;;
44636;SDS011;30343;0.000;0.000;2022-08-21T05:21:55;9.32;;;3.25;;
44636;SDS011;30343;0.000;0.000;2022-08-21T05:27:23;12.35;;;4.18;;
44636;SDS011;30343;0.000;0.000;2022-08-21T05:30:08;9.27;;;3.70;;
44636;SDS011;30343;0.000;0.000;2022-08-21T05:32:56;7.95;;;3.17;;
44636;SDS011;30343;0.000;0.000;2022-08-21T05:35:42;9.35;;;3.55;;
44636;SDS011;30343;0.000;0.000;2022-08-21T05:38:26;9.25;;;3.83;;
44636;SDS011;30343;0.000;0.000;2022-08-21T05:41:12;9.00;;;3.20;;
44636;SDS011;30343;0.000;0.000;2022-08-21T05:43:55;10.80;;;4.30;;
44636;SDS011;30343;0.000;0.000;2022-08-21T05:46:40;8.75;;;3.85;;
44636;SDS011;30343;0.000;0.000;2022-08-21T05:49:24;6.97;;;3.67;;
44636;SDS011;30343;0.000;0.000;2022-08-21T05:52:08;10.35;;;3.72;;
44636;SDS011;30343;0.000;0.000;2022-08-21T05:54:52;8.60;;;3.35;;
44636;SDS011;30343;0.000;0.000;2022-08-21T05:57:39;8.60;;;4.00;;
44636;SDS011;30343;0.000;0.000;2022-08-21T06:00:24;10.77;;;4.03;;
44636;SDS011;30343;0.000;0.000;2022-08-21T06:03:18;10.73;;;3.88;;
44636;SDS011;30343;0.000;0.000;2022-08-21T06:06:05;11.60;;;3.75;;
44636;SDS011;30343;0.000;0.000;2022-08-21T06:08:49;7.00;;;3.60;;
44636;SDS011;30343;0.000;0.000;2022-08-21T06:11:33;6.20;;;3.33;;
44636;SDS011;30343;0.000;0.000;2022-08-21T06:14:18;8.02;;;3.55;;
44636;SDS011;30343;0.000;0.000;2022-08-21T06:17:03;7.07;;;2.83;;
44636;SDS011;30343;0.000;0.000;2022-08-21T06:19:50;8.35;;;3.60;;
44636;SDS011;30343;0.000;0.000;2022-08-21T06:22:36;9.35;;;3.97;;
44636;SDS011;30343;0.000;0.000;2022-08-21T06:25:20;12.15;;;4.05;;
44636;SDS011;30343;0.000;0.000;2022-08-21T06:28:05;7.90;;;3.20;;
44636;SDS011;30343;0.000;0.000;2022-08-21T06:30:52;9.35;;;4.07;;
44636;SDS011;30343;0.000;0.000;2022-08-21T06:33:37;7.63;;;3.33;;
44636;SDS011;30343;0.000;0.000;2022-08-21T06:36:24;6.78;;;3.92;;
44636;SDS011;30343;0.000;0.000;2022-08-21T06:39:08;9.27;;;2.97;;
44636;SDS011;30343;0.000;0.000;2022-08-21T06:41:52;15.55;;;4.65;;
44636;SDS011;30343;0.000;0.000;2022-08-21T06:44:36;7.70;;;3.92;;
44636;SDS011;30343;0.000;0.000;2022-08-21T06:47:20;7.43;;;3.03;;
44636;SDS011;30343;0.000;0.000;2022-08-21T06:50:04;8.15;;;4.78;;
44636;SDS011;30343;0.000;0.000;2022-08-21T06:52:57;7.35;;;3.58;;
44636;SDS011;30343;0.000;0.000;2022-08-21T06:55:46;10.88;;;3.72;;
44636;SDS011;30343;0.000;0.000;2022-08-21T06:58:33;9.48;;;4.18;;
44636;SDS011;30343;0.000;0.000;2022-08-21T07:01:19;9.45;;;3.30;;
44636;SDS011;30343;0.000;0.000;2022-08-21T07:04:07;12.32;;;4.50;;
44636;SDS011;30343;0.000;0.000;2022-08-21T07:06:51;12.63;;;4.00;;
44636;SDS011;30343;0.000;0.000;2022-08-21T07:09:35;13.27;;;4.40;;
44636;SDS011;30343;0.000;0.000;2022-08-21T07:12:19;7.80;;;3.47;;
44636;SDS011;30343;0.000;0.000;2022-08-21T07:17:48;9.40;;;3.97;;
44636;SDS011;30343;0.000;0.000;2022-08-21T07:20:35;8.98;;;3.90;;
44636;SDS011;30343;0.000;0.000;2022-08-21T07:26:07;12.27;;;4.22;;
44636;SDS011;30343;0.000;0.000;2022-08-21T07:28:54;9.13;;;3.60;;
44636;SDS011;30343;0.000;0.000;2022-08-21T07:31:38;15.70;;;4.18;;
44636;SDS011;30343;0.000;0.000;2022-08-21T07:34:24;8.75;;;4.10;;
44636;SDS011;30343;0.000;0.000;2022-08-21T07:37:08;8.35;;;3.63;;
44636;SDS011;30343;0.000;0.000;2022-08-21T07:39:52;7.53;;;3.55;;
44636;SDS011;30343;0.000;0.000;2022-08-21T07:42:43;6.25;;;3.40;;
44636;SDS011;30343;0.000;0.000;2022-08-21T07:45:28;11.20;;;3.30;;
44636;SDS011;30343;0.000;0.000;2022-08-21T07:48:13;7.22;;;3.67;;
44636;SDS011;30343;0.000;0.000;2022-08-21T07:50:57;7.35;;;3.22;;
44636;SDS011;30343;0.000;0.000;2022-08-21T07:53:52;5.72;;;3.00;;
44636;SDS011;30343;0.000;0.000;2022-08-21T07:56:38;5.00;;;2.60;;
44636;SDS011;30343;0.000;0.000;2022-08-21T07:59:22;5.97;;;2.65;;
44636;SDS011;30343;0.000;0.000;2022-08-21T08:02:06;4.32;;;2.70;;
44636;SDS011;30343;0.000;0.000;2022-08-21T08:04:49;5.97;;;2.30;;
44636;SDS011;30343;0.000;0.000;2022-08-21T08:07:34;5.78;;;2.40;;
44636;SDS011;30343;0.000;0.000;2022-08-21T08:10:24;7.35;;;2.22;;
44636;SDS011;30343;0.000;0.000;2022-08-21T08:13:08;10.52;;;2.95;;
44636;SDS011;30343;0.000;0.000;2022-08-21T08:15:52;13.90;;;2.10;;
44636;SDS011;30343;0.000;0.000;2022-08-21T08:18:39;10.38;;;3.30;;
44636;SDS011;30343;0.000;0.000;2022-08-21T08:21:26;6.95;;;2.83;;
44636;SDS011;30343;0.000;0.000;2022-08-21T08:24:13;6.35;;;3.10;;
44636;SDS011;30343;0.000;0.000;2022-08-21T08:26:58;11.55;;;3.08;;
44636;SDS011;30343;0.000;0.000;2022-08-21T08:29:42;6.82;;;2.03;;
44636;SDS011;30343;0.000;0.000;2022-08-21T08:32:28;3.78;;;1.70;;
44636;SDS011;30343;0.000;0.000;2022-08-21T08:35:12;5.05;;;2.20;;
44636;SDS011;30343;0.000;0.000;2022-08-21T08:37:56;5.95;;;2.25;;
44636;SDS011;30343;0.000;0.000;2022-08-21T08:44:00;7.65;;;2.58;;
44636;SDS011;30343;0.000;0.000;2022-08-21T08:46:47;5.07;;;1.80;;
44636;SDS011;30343;0.000;0.000;2022-08-21T08:49:37;6.00;;;1.98;;
44636;SDS011;30343;0.000;0.000;2022-08-21T08:55:17;4.47;;;2.03;;
44636;SDS011;30343;0.000;0.000;2022-08-21T08:58:04;4.03;;;1.70;;
44636;SDS011;30343;0.000;0.000;2022-08-21T09:01:12;3.20;;;1.95;;
44636;SDS011;30343;0.000;0.000;2022-08-21T09:04:03;8.43;;;1.85;;
44636;SDS011;30343;0.000;0.000;2022-08-21T09:06:55;3.88;;;2.20;;
44636;SDS011;30343;0.000;0.000;2022-08-21T09:13:19;5.65;;;2.40;;
44636;SDS011;30343;0.000;0.000;2022-08-21T09:16:42;6.93;;;2.72;;
44636;SDS011;30343;0.000;0.000;2022-08-21T09:22:34;3.28;;;2.17;;
44636;SDS011;30343;0.000;0.000;2022-08-21T09:25:25;6.22;;;2.50;;
44636;SDS011;30343;0.000;0.000;2022-08-21T09:28:11;4.93;;;2.53;;
44636;SDS011;30343;0.000;0.000;2022-08-21T09:30:58;5.47;;;1.90;;
44636;SDS011;30343;0.000;0.000;2022-08-21T09:33:45;3.35;;;2.20;;
44636;SDS011;30343;0.000;0.000;2022-08-21T09:36:35;3.58;;;1.70;;
44636;SDS011;30343;0.000;0.000;2022-08-21T09:39:29;6.32;;;2.75;;
44636;SDS011;30343;0.000;0.000;2022-08-21T09:42:23;2.88;;;1.75;;
44636;SDS011;30343;0.000;0.000;2022-08-21T09:45:15;7.60;;;2.50;;
44636;SDS011;30343;0.000;0.000;2022-08-21T09:51:04;7.60;;;2.10;;
44636;SDS011;30343;0.000;0.000;2022-08-21T09:57:00;4.65;;;2.15;;
44636;SDS011;30343;0.000;0.000;2022-08-21T10:03:07;6.38;;;1.83;;
44636;SDS011;30343;0.000;0.000;2022-08-21T10:06:03;5.35;;;2.65;;
44636;SDS011;30343;0.000;0.000;2022-08-21T10:09:03;4.97;;;2.13;;
44636;SDS011;30343;0.000;0.000;2022-08-21T10:12:13;6.63;;;1.92;;
44636;SDS011;30343;0.000;0.000;2022-08-21T10:18:15;5.72;;;2.15;;
44636;SDS011;30343;0.000;0.000;2022-08-21T10:21:23;3.55;;;2.10;;
44636;SDS011;30343;0.000;0.000;2022-08-21T10:24:18;5.65;;;2.20;;
44636;SDS011;30343;0.000;0.000;2022-08-21T10:27:20;3.05;;;1.58;;
44636;SDS011;30343;0.000;0.000;2022-08-21T10:30:17;5.22;;;1.90;;
44636;SDS011;30343;0.000;0.000;2022-08-21T10:36:26;5.50;;;2.20;;
44636;SDS011;30343;0.000;0.000;2022-08-21T10:42:27;5.03;;;1.98;;
44636;SDS011;30343;0.000;0.000;2022-08-21T10:48:29;3.15;;;1.60;;
44636;SDS011;30343;0.000;0.000;2022-08-21T10:51:35;4.43;;;2.22;;
44636;SDS011;30343;0.000;0.000;2022-08-21T11:00:28;4.63;;;2.58;;
44636;SDS011;30343;0.000;0.000;2022-08-21T11:06:27;4.25;;;1.75;;
44636;SDS011;30343;0.000;0.000;2022-08-21T11:09:17;5.15;;;2.28;;
44636;SDS011;30343;0.000;0.000;2022-08-21T11:12:11;6.32;;;1.98;;
44636;SDS011;30343;0.000;0.000;2022-08-21T11:15:24;7.47;;;2.20;;
44636;SDS011;30343;0.000;0.000;2022-08-21T11:18:24;8.65;;;3.00;;
44636;SDS011;30343;0.000;0.000;2022-08-21T11:21:29;6.30;;;2.92;;
44636;SDS011;30343;0.000;0.000;2022-08-21T11:27:40;5.85;;;1.98;;
44636;SDS011;30343;0.000;0.000;2022-08-21T11:30:31;6.30;;;2.17;;
44636;SDS011;30343;0.000;0.000;2022-08-21T11:33:46;7.18;;;2.42;;
44636;SDS011;30343;0.000;0.000;2022-08-21T11:45:55;5.45;;;2.08;;
44636;SDS011;30343;0.000;0.000;2022-08-21T11:48:56;6.72;;;1.98;;
44636;SDS011;30343;0.000;0.000;2022-08-21T11:52:02;5.28;;;1.90;;
44636;SDS011;30343;0.000;0.000;2022-08-21T11:58:07;5.78;;;1.83;;
44636;SDS011;30343;0.000;0.000;2022-08-21T12:01:24;8.20;;;2.13;;
44636;SDS011;30343;0.000;0.000;2022-08-21T12:04:28;2.92;;;2.03;;
44636;SDS011;30343;0.000;0.000;2022-08-21T12:07:17;6.57;;;2.20;;
44636;SDS011;30343;0.000;0.000;2022-08-21T12:10:15;4.22;;;2.00;;
44636;SDS011;30343;0.000;0.000;2022-08-21T12:13:21;5.13;;;2.55;;
44636;SDS011;30343;0.000;0.000;2022-08-21T12:16:16;3.75;;;1.73;;
44636;SDS011;30343;0.000;0.000;2022-08-21T12:24:50;4.25;;;2.08;;
44636;SDS011;30343;0.000;0.000;2022-08-21T12:27:53;3.72;;;1.80;;
44636;SDS011;30343;0.000;0.000;2022-08-21T12:30:50;6.13;;;2.17;;
44636;SDS011;30343;0.000;0.000;2022-08-21T12:33:38;4.95;;;2.08;;
44636;SDS011;30343;0.000;0.000;2022-08-21T12:36:24;4.05;;;2.38;;
44636;SDS011;30343;0.000;0.000;2022-08-21T12:39:25;6.95;;;1.92;;
44636;SDS011;30343;0.000;0.000;2022-08-21T12:42:24;5.65;;;2.22;;
44636;SDS011;30343;0.000;0.000;2022-08-21T12:45:25;7.82;;;2.80;;
44636;SDS011;30343;0.000;0.000;2022-08-21T12:48:26;5.38;;;2.00;;
44636;SDS011;30343;0.000;0.000;2022-08-21T12:54:39;5.45;;;2.40;;
44636;SDS011;30343;0.000;0.000;2022-08-21T12:57:25;4.28;;;2.13;;
44636;SDS011;30343;0.000;0.000;2022-08-21T13:00:12;12.95;;;2.30;;
44636;SDS011;30343;0.000;0.000;2022-08-21T13:02:57;6.65;;;2.50;;
44636;SDS011;30343;0.000;0.000;2022-08-21T13:05:43;8.68;;;2.13;;
44636;SDS011;30343;0.000;0.000;2022-08-21T13:08:27;6.07;;;2.38;;
44636;SDS011;30343;0.000;0.000;2022-08-21T13:13:58;4.38;;;1.92;;
44636;SDS011;30343;0.000;0.000;2022-08-21T13:16:45;5.97;;;1.75;;
44636;SDS011;30343;0.000;0.000;2022-08-21T13:19:29;7.82;;;2.85;;
44636;SDS011;30343;0.000;0.000;2022-08-21T13:22:13;6.13;;;2.30;;
44636;SDS011;30343;0.000;0.000;2022-08-21T13:24:58;4.85;;;1.65;;
44636;SDS011;30343;0.000;0.000;2022-08-21T13:27:43;6.60;;;2.35;;
44636;SDS011;30343;0.000;0.000;2022-08-21T13:30:30;6.97;;;2.28;;
44636;SDS011;30343;0.000;0.000;2022-08-21T13:33:16;7.72;;;2.53;;
44636;SDS011;30343;0.000;0.000;2022-08-21T13:38:57;8.23;;;2.22;;
44636;SDS011;30343;0.000;0.000;2022-08-21T13:41:45;6.22;;;2.30;;
44636;SDS011;30343;0.000;0.000;2022-08-21T13:44:48;4.80;;;2.30;;
44636;SDS011;30343;0.000;0.000;2022-08-21T13:47:38;6.40;;;1.95;;
44636;SDS011;30343;0.000;0.000;2022-08-21T13:50:23;4.93;;;2.03;;
44636;SDS011;30343;0.000;0.000;2022-08-21T13:54:13;4.25;;;2.08;;
44636;SDS011;30343;0.000;0.000;2022-08-21T13:56:31;7.43;;;2.50;;
44636;SDS011;30343;0.000;0.000;2022-08-21T13:59:28;5.35;;;2.40;;
44636;SDS011;30343;0.000;0.000;2022-08-21T14:02:18;8.48;;;2.35;;
44636;SDS011;30343;0.000;0.000;2022-08-21T14:05:06;5.68;;;2.53;;
44636;SDS011;30343;0.000;0.000;2022-08-21T14:10:58;9.48;;;2.50;;
44636;SDS011;30343;0.000;0.000;2022-08-21T14:13:45;6.80;;;2.20;;
44636;SDS011;30343;0.000;0.000;2022-08-21T14:16:43;7.60;;;2.13;;
44636;SDS011;30343;0.000;0.000;2022-08-21T14:19:39;5.88;;;2.22;;
44636;SDS011;30343;0.000;0.000;2022-08-21T14:22:28;6.65;;;2.33;;
44636;SDS011;30343;0.000;0.000;2022-08-21T14:28:18;6.97;;;2.30;;
44636;SDS011;30343;0.000;0.000;2022-08-21T14:31:10;5.30;;;2.28;;
44636;SDS011;30343;0.000;0.000;2022-08-21T14:34:05;5.90;;;2.30;;
44636;SDS011;30343;0.000;0.000;2022-08-21T14:36:49;4.05;;;2.28;;
44636;SDS011;30343;0.000;0.000;2022-08-21T14:39:34;4.53;;;1.98;;
44636;SDS011;30343;0.000;0.000;2022-08-21T14:42:18;6.22;;;2.22;;
44636;SDS011;30343;0.000;0.000;2022-08-21T14:45:07;4.07;;;2.00;;
44636;SDS011;30343;0.000;0.000;2022-08-21T14:48:09;5.80;;;2.28;;
44636;SDS011;30343;0.000;0.000;2022-08-21T14:50:54;6.47;;;2.55;;
44636;SDS011;30343;0.000;0.000;2022-08-21T14:53:37;7.20;;;2.30;;
44636;SDS011;30343;0.000;0.000;2022-08-21T14:56:21;5.85;;;2.20;;
44636;SDS011;30343;0.000;0.000;2022-08-21T14:59:08;6.68;;;2.13;;
44636;SDS011;30343;0.000;0.000;2022-08-21T15:01:55;6.63;;;2.00;;
44636;SDS011;30343;0.000;0.000;2022-08-21T15:04:39;7.68;;;2.58;;
44636;SDS011;30343;0.000;0.000;2022-08-21T15:07:25;8.23;;;2.63;;
44636;SDS011;30343;0.000;0.000;2022-08-21T15:10:09;5.28;;;2.45;;
44636;SDS011;30343;0.000;0.000;2022-08-21T15:12:53;5.93;;;2.05;;
44636;SDS011;30343;0.000;0.000;2022-08-21T15:15:38;9.50;;;2.50;;
44636;SDS011;30343;0.000;0.000;2022-08-21T15:18:26;4.78;;;2.22;;
44636;SDS011;30343;0.000;0.000;2022-08-21T15:21:11;7.20;;;2.72;;
44636;SDS011;30343;0.000;0.000;2022-08-21T15:23:55;3.67;;;2.47;;
44636;SDS011;30343;0.000;0.000;2022-08-21T15:26:39;6.85;;;2.70;;
44636;SDS011;30343;0.000;0.000;2022-08-21T15:29:23;8.18;;;3.03;;
44636;SDS011;30343;0.000;0.000;2022-08-21T15:32:24;8.18;;;3.05;;
44636;SDS011;30343;0.000;0.000;2022-08-21T15:35:10;6.63;;;2.78;;
44636;SDS011;30343;0.000;0.000;2022-08-21T15:37:54;7.95;;;2.65;;
44636;SDS011;30343;0.000;0.000;2022-08-21T15:40:38;4.03;;;2.47;;
44636;SDS011;30343;0.000;0.000;2022-08-21T15:43:26;6.97;;;2.58;;
44636;SDS011;30343;0.000;0.000;2022-08-21T15:46:13;6.60;;;2.65;;
44636;SDS011;30343;0.000;0.000;2022-08-21T15:48:58;8.10;;;2.83;;
44636;SDS011;30343;0.000;0.000;2022-08-21T15:51:42;10.35;;;3.50;;
44636;SDS011;30343;0.000;0.000;2022-08-21T15:54:29;8.63;;;2.80;;
44636;SDS011;30343;0.000;0.000;2022-08-21T15:57:17;4.85;;;2.22;;
44636;SDS011;30343;0.000;0.000;2022-08-21T16:00:10;7.32;;;2.90;;
44636;SDS011;30343;0.000;0.000;2022-08-21T16:02:57;7.57;;;2.67;;
44636;SDS011;30343;0.000;0.000;2022-08-21T16:05:44;7.88;;;2.10;;
44636;SDS011;30343;0.000;0.000;2022-08-21T16:08:31;5.57;;;2.30;;
44636;SDS011;30343;0.000;0.000;2022-08-21T16:11:15;4.72;;;2.20;;
44636;SDS011;30343;0.000;0.000;2022-08-21T16:13:59;11.07;;;2.92;;
44636;SDS011;30343;0.000;0.000;2022-08-21T16:16:43;4.45;;;2.10;;
44636;SDS011;30343;0.000;0.000;2022-08-21T16:19:28;6.93;;;2.22;;
44636;SDS011;30343;0.000;0.000;2022-08-21T16:22:12;6.82;;;2.40;;
44636;SDS011;30343;0.000;0.000;2022-08-21T16:24:56;6.10;;;2.03;;
44636;SDS011;30343;0.000;0.000;2022-08-21T16:27:47;7.68;;;2.20;;
44636;SDS011;30343;0.000;0.000;2022-08-21T16:30:34;5.30;;;2.25;;
44636;SDS011;30343;0.000;0.000;2022-08-21T16:36:08;5.50;;;2.13;;
44636;SDS011;30343;0.000;0.000;2022-08-21T16:38:58;6.63;;;2.47;;
44636;SDS011;30343;0.000;0.000;2022-08-21T16:41:46;5.53;;;2.25;;
44636;SDS011;30343;0.000;0.000;2022-08-21T16:44:34;5.75;;;2.00;;
44636;SDS011;30343;0.000;0.000;2022-08-21T16:47:21;8.00;;;2.67;;
44636;SDS011;30343;0.000;0.000;2022-08-21T16:50:06;7.40;;;1.92;;
44636;SDS011;30343;0.000;0.000;2022-08-21T16:52:53;5.57;;;2.10;;
44636;SDS011;30343;0.000;0.000;2022-08-21T16:55:40;4.07;;;1.88;;
44636;SDS011;30343;0.000;0.000;2022-08-21T16:58:31;8.55;;;2.13;;
44636;SDS011;30343;0.000;0.000;2022-08-21T17:01:21;4.82;;;2.00;;
44636;SDS011;30343;0.000;0.000;2022-08-21T17:04:07;9.77;;;3.13;;
44636;SDS011;30343;0.000;0.000;2022-08-21T17:06:57;6.53;;;2.10;;
44636;SDS011;30343;0.000;0.000;2022-08-21T17:09:41;7.88;;;2.30;;
44636;SDS011;30343;0.000;0.000;2022-08-21T17:12:25;8.10;;;2.30;;
44636;SDS011;30343;0.000;0.000;2022-08-21T17:15:15;6.95;;;2.05;;
44636;SDS011;30343;0.000;0.000;2022-08-21T17:18:05;5.50;;;2.03;;
44636;SDS011;30343;0.000;0.000;2022-08-21T17:20:52;4.75;;;1.90;;
44636;SDS011;30343;0.000;0.000;2022-08-21T17:23:40;6.80;;;1.88;;
44636;SDS011;30343;0.000;0.000;2022-08-21T17:26:27;6.93;;;2.17;;
44636;SDS011;30343;0.000;0.000;2022-08-21T17:29:14;7.70;;;3.05;;
44636;SDS011;30343;0.000;0.000;2022-08-21T17:31:59;8.40;;;2.58;;
44636;SDS011;30343;0.000;0.000;2022-08-21T17:34:46;4.55;;;2.05;;
44636;SDS011;30343;0.000;0.000;2022-08-21T17:37:36;7.40;;;2.22;;
44636;SDS011;30343;0.000;0.000;2022-08-21T17:40:20;9.05;;;2.20;;
44636;SDS011;30343;0.000;0.000;2022-08-21T17:43:06;4.60;;;1.90;;
44636;SDS011;30343;0.000;0.000;2022-08-21T17:45:51;6.35;;;2.10;;
44636;SDS011;30343;0.000;0.000;2022-08-21T17:48:36;6.45;;;2.40;;
44636;SDS011;30343;0.000;0.000;2022-08-21T17:51:19;6.75;;;2.60;;
44636;SDS011;30343;0.000;0.000;2022-08-21T17:54:06;6.28;;;2.15;;
44636;SDS011;30343;0.000;0.000;2022-08-21T17:56:50;7.53;;;2.15;;
44636;SDS011;30343;0.000;0.000;2022-08-21T17:59:36;5.78;;;1.95;;
44636;SDS011;30343;0.000;0.000;2022-08-21T18:02:22;6.38;;;2.05;;
44636;SDS011;30343;0.000;0.000;2022-08-21T18:05:08;4.57;;;1.80;;
44636;SDS011;30343;0.000;0.000;2022-08-21T18:07:54;4.78;;;1.77;;
44636;SDS011;30343;0.000;0.000;2022-08-21T18:10:38;5.40;;;2.05;;
44636;SDS011;30343;0.000;0.000;2022-08-21T18:13:26;5.80;;;1.98;;
44636;SDS011;30343;0.000;0.000;2022-08-21T18:16:13;5.93;;;2.10;;
44636;SDS011;30343;0.000;0.000;2022-08-21T18:19:02;5.38;;;2.08;;
44636;SDS011;30343;0.000;0.000;2022-08-21T18:21:48;4.60;;;1.80;;
44636;SDS011;30343;0.000;0.000;2022-08-21T18:24:32;5.90;;;2.20;;
44636;SDS011;30343;0.000;0.000;2022-08-21T18:27:21;7.60;;;1.75;;
44636;SDS011;30343;0.000;0.000;2022-08-21T18:30:06;5.90;;;2.65;;
44636;SDS011;30343;0.000;0.000;2022-08-21T18:32:51;4.60;;;2.22;;
44636;SDS011;30343;0.000;0.000;2022-08-21T18:35:37;6.40;;;1.88;;
44636;SDS011;30343;0.000;0.000;2022-08-21T18:38:21;4.78;;;1.88;;
44636;SDS011;30343;0.000;0.000;2022-08-21T18:41:05;3.60;;;2.17;;
44636;SDS011;30343;0.000;0.000;2022-08-21T18:43:49;4.20;;;2.15;;
44636;SDS011;30343;0.000;0.000;2022-08-21T18:46:33;4.40;;;1.95;;
44636;SDS011;30343;0.000;0.000;2022-08-21T18:49:17;4.00;;;2.08;;
44636;SDS011;30343;0.000;0.000;2022-08-21T18:52:02;8.35;;;2.15;;
44636;SDS011;30343;0.000;0.000;2022-08-21T18:54:47;3.58;;;1.63;;
44636;SDS011;30343;0.000;0.000;2022-08-21T18:57:31;4.68;;;1.83;;
44636;SDS011;30343;0.000;0.000;2022-08-21T19:02:56;4.38;;;1.73;;